Kinard, Florida
Current Conditions -  °F | °C
As of 2:58 AM on Thursday 23 Oct 2014 (Local Time) from KPAM Reporting Station
Clear Clear  
Wind Chill: 57°   Ceiling: Unl
Heat Index: 57°   Visibility: 10mi
Dew Point: 47°   Wind: 6mph
Humidity: 71%   Direction: 60°ENE
Pressure: 30.03"   Gusts: NA
Location:  30.27°N, 85.24°W
Report Text: KPAM 230758Z AUTO 06005KT 10SM CLR 14/09 A3003 RMK AO2 SLP172 T01380086 $
Loading
Personal Weather Stations






























Interactive Weather Map
Tropical Storm Tracking
New forecast layout! Learn more

10-Day Weather Forecast

Advertisements
Track Severe Weather on mobile